Peoria, AZ

7:08 AM MST on February 14, 2016 (GMT -0700)
Apollo Village | | Change Station
CLOSE
Current Station
Personal Weather Station
Location: Peoria, AZ
Elevation: 1122 ft
Nearby Weather Stations

Elev 1122 ft 33.58 °N, 112.27 °W | Updated 1 second ago

Clear
Clear
46.7 °F
Feels Like 47 °F
N
0.0
Wind Variable Wind from WNW
Gusts 0.0 mph

Today
High -- | Low -- °F
--% Chance of Precip.
Yesterday
High -- | Low -- °F
Precip. -- in
Pressure 30.01 in
Visibility 20.0 miles
Clouds Few 25000 ft
Windchill 47 °F
Dew Point 32 °F
Humidity 56%
Rainfall 0.00 in
Snow Depth Not available.
7:14 AM 6:12 PM
Waxing Crescent, 42% visible
METAR KGEU 141347Z 00000KT 20SM FEW250 10/M01 A3001 RMK FIRST
Pressure 30.01 in
Visibility 20.0 miles
Clouds Few 25000 ft
Windchill 47 °F
Dew Point 32 °F
Humidity 56%
Rainfall 0.00 in
Snow Depth Not available.
7:14 AM 6:12 PM
Waxing Crescent, 42% visible
METAR KGEU 141347Z 00000KT 20SM FEW250 10/M01 A3001 RMK FIRST

10-Day Weather Forecast

Almanac

Astronomy

Feb. 14, 2016 Rise Set
Actual Time
Civil Twilight
Nautical Twilight
Astronomical Twilight
Moon
Length of Visible Light
Length of Day
Tomorrow will be .
, % of the Moon is Illuminated

Today's Extremes

State Highs State Lows

Community

WunderPhotos

Upload Photos

1,892,797 photos uploaded!

WunderBlog® & News

Nearby

Air Quality

  Air Quality AQ Index Pollutant
Not available.

Snow Depth

Station Depth Elevation

Earthquake Activity

City Distance Mag. Time & Date
Minimum magnitude displayed is 2.5.

Coastal Water Temperatures

Place Temperature

Stations

Nearby Weather Stations

Station Location Temp. Windchill Dew Point Humidity Wind Precip. Elev Updated Type
                   

Watches & Warnings

There are currently no watches in effect.